sensor_id;sensor_type;location;lat;lon;timestamp;P1;durP1;ratioP1;P2;durP2;ratioP2
50104;SDS011;47690;39.202;-77.198;2022-09-29T00:04:00;1.80;;;1.70;;
50104;SDS011;47690;39.202;-77.198;2022-09-29T00:11:55;1.80;;;1.70;;
50104;SDS011;47690;39.202;-77.198;2022-09-29T00:32:08;1.83;;;1.73;;
50104;SDS011;47690;39.202;-77.198;2022-09-29T00:41:33;1.95;;;1.83;;
50104;SDS011;47690;39.202;-77.198;2022-09-29T00:51:15;2.17;;;1.98;;
50104;SDS011;47690;39.202;-77.198;2022-09-29T00:59:45;1.83;;;1.73;;
50104;SDS011;47690;39.202;-77.198;2022-09-29T01:04:25;1.90;;;1.80;;
50104;SDS011;47690;39.202;-77.198;2022-09-29T01:13:24;2.22;;;1.90;;
50104;SDS011;47690;39.202;-77.198;2022-09-29T01:16:30;2.00;;;1.90;;
50104;SDS011;47690;39.202;-77.198;2022-09-29T01:27:35;1.73;;;1.45;;
50104;SDS011;47690;39.202;-77.198;2022-09-29T01:45:26;1.98;;;1.77;;
50104;SDS011;47690;39.202;-77.198;2022-09-29T01:48:43;1.80;;;1.70;;
50104;SDS011;47690;39.202;-77.198;2022-09-29T01:52:25;1.67;;;1.58;;
50104;SDS011;47690;39.202;-77.198;2022-09-29T01:55:37;1.90;;;1.73;;
50104;SDS011;47690;39.202;-77.198;2022-09-29T01:58:59;1.80;;;1.70;;
50104;SDS011;47690;39.202;-77.198;2022-09-29T02:03:17;1.90;;;1.80;;
50104;SDS011;47690;39.202;-77.198;2022-09-29T02:16:25;1.90;;;1.80;;
50104;SDS011;47690;39.202;-77.198;2022-09-29T02:20:09;1.75;;;1.65;;
50104;SDS011;47690;39.202;-77.198;2022-09-29T02:28:13;2.08;;;1.88;;
50104;SDS011;47690;39.202;-77.198;2022-09-29T02:31:17;1.98;;;1.83;;
50104;SDS011;47690;39.202;-77.198;2022-09-29T02:35:05;2.05;;;1.85;;
50104;SDS011;47690;39.202;-77.198;2022-09-29T02:38:53;2.30;;;2.10;;
50104;SDS011;47690;39.202;-77.198;2022-09-29T02:42:24;2.10;;;1.90;;
50104;SDS011;47690;39.202;-77.198;2022-09-29T02:52:31;1.73;;;1.63;;
50104;SDS011;47690;39.202;-77.198;2022-09-29T03:11:57;1.70;;;1.60;;
50104;SDS011;47690;39.202;-77.198;2022-09-29T03:15:57;1.75;;;1.65;;
50104;SDS011;47690;39.202;-77.198;2022-09-29T03:18:56;2.03;;;1.80;;
50104;SDS011;47690;39.202;-77.198;2022-09-29T03:22:00;1.85;;;1.75;;
50104;SDS011;47690;39.202;-77.198;2022-09-29T03:30:44;1.63;;;1.52;;
50104;SDS011;47690;39.202;-77.198;2022-09-29T03:35:25;2.00;;;1.80;;
50104;SDS011;47690;39.202;-77.198;2022-09-29T03:39:24;1.77;;;1.67;;
50104;SDS011;47690;39.202;-77.198;2022-09-29T03:57:36;1.60;;;1.50;;
50104;SDS011;47690;39.202;-77.198;2022-09-29T04:02:41;1.88;;;1.77;;
50104;SDS011;47690;39.202;-77.198;2022-09-29T04:17:37;1.73;;;1.63;;
50104;SDS011;47690;39.202;-77.198;2022-09-29T04:22:41;2.42;;;1.90;;
50104;SDS011;47690;39.202;-77.198;2022-09-29T04:30:27;1.90;;;1.80;;
50104;SDS011;47690;39.202;-77.198;2022-09-29T04:34:01;1.80;;;1.70;;
50104;SDS011;47690;39.202;-77.198;2022-09-29T04:37:38;1.48;;;1.38;;
50104;SDS011;47690;39.202;-77.198;2022-09-29T04:41:09;1.80;;;1.70;;
50104;SDS011;47690;39.202;-77.198;2022-09-29T04:57:13;1.50;;;1.40;;
50104;SDS011;47690;39.202;-77.198;2022-09-29T05:28:29;1.48;;;1.38;;
50104;SDS011;47690;39.202;-77.198;2022-09-29T05:32:23;1.30;;;1.23;;
50104;SDS011;47690;39.202;-77.198;2022-09-29T05:47:34;1.15;;;1.15;;
50104;SDS011;47690;39.202;-77.198;2022-09-29T05:52:02;1.20;;;1.15;;
50104;SDS011;47690;39.202;-77.198;2022-09-29T06:00:28;1.60;;;1.50;;
50104;SDS011;47690;39.202;-77.198;2022-09-29T06:08:29;1.17;;;1.13;;
50104;SDS011;47690;39.202;-77.198;2022-09-29T06:18:05;1.17;;;1.08;;
50104;SDS011;47690;39.202;-77.198;2022-09-29T06:21:14;0.98;;;0.98;;
50104;SDS011;47690;39.202;-77.198;2022-09-29T06:28:05;1.00;;;1.00;;
50104;SDS011;47690;39.202;-77.198;2022-09-29T06:31:00;1.50;;;1.40;;
50104;SDS011;47690;39.202;-77.198;2022-09-29T06:34:23;1.38;;;1.33;;
50104;SDS011;47690;39.202;-77.198;2022-09-29T06:38:04;1.90;;;1.33;;
50104;SDS011;47690;39.202;-77.198;2022-09-29T06:41:04;1.52;;;1.42;;
50104;SDS011;47690;39.202;-77.198;2022-09-29T06:44:09;1.42;;;1.33;;
50104;SDS011;47690;39.202;-77.198;2022-09-29T07:01:23;1.30;;;1.20;;
50104;SDS011;47690;39.202;-77.198;2022-09-29T07:04:41;1.25;;;1.15;;
50104;SDS011;47690;39.202;-77.198;2022-09-29T07:08:04;1.40;;;1.30;;
50104;SDS011;47690;39.202;-77.198;2022-09-29T07:16:42;1.40;;;1.30;;
50104;SDS011;47690;39.202;-77.198;2022-09-29T07:21:04;1.30;;;1.30;;
50104;SDS011;47690;39.202;-77.198;2022-09-29T07:24:18;1.50;;;1.30;;
50104;SDS011;47690;39.202;-77.198;2022-09-29T07:28:51;1.15;;;1.15;;
50104;SDS011;47690;39.202;-77.198;2022-09-29T07:32:29;0.90;;;0.90;;
50104;SDS011;47690;39.202;-77.198;2022-09-29T07:36:29;1.13;;;1.10;;
50104;SDS011;47690;39.202;-77.198;2022-09-29T07:40:00;1.02;;;1.02;;
50104;SDS011;47690;39.202;-77.198;2022-09-29T07:43:29;1.08;;;1.08;;
50104;SDS011;47690;39.202;-77.198;2022-09-29T07:46:35;1.17;;;1.15;;
50104;SDS011;47690;39.202;-77.198;2022-09-29T07:50:00;1.00;;;1.00;;
50104;SDS011;47690;39.202;-77.198;2022-09-29T07:53:24;1.20;;;1.20;;
50104;SDS011;47690;39.202;-77.198;2022-09-29T07:56:40;0.98;;;0.98;;
50104;SDS011;47690;39.202;-77.198;2022-09-29T08:00:55;1.13;;;1.13;;
50104;SDS011;47690;39.202;-77.198;2022-09-29T08:04:08;1.48;;;1.38;;
50104;SDS011;47690;39.202;-77.198;2022-09-29T08:11:42;1.25;;;1.20;;
50104;SDS011;47690;39.202;-77.198;2022-09-29T08:16:21;0.82;;;0.82;;
50104;SDS011;47690;39.202;-77.198;2022-09-29T08:19:53;1.30;;;1.20;;
50104;SDS011;47690;39.202;-77.198;2022-09-29T08:28:32;0.90;;;0.90;;
50104;SDS011;47690;39.202;-77.198;2022-09-29T08:32:01;0.95;;;0.95;;
50104;SDS011;47690;39.202;-77.198;2022-09-29T08:37:04;0.98;;;0.98;;
50104;SDS011;47690;39.202;-77.198;2022-09-29T08:41:00;1.10;;;1.10;;
50104;SDS011;47690;39.202;-77.198;2022-09-29T08:52:23;1.00;;;1.00;;
50104;SDS011;47690;39.202;-77.198;2022-09-29T08:57:21;1.00;;;1.00;;
50104;SDS011;47690;39.202;-77.198;2022-09-29T09:10:03;1.00;;;1.00;;
50104;SDS011;47690;39.202;-77.198;2022-09-29T09:37:14;0.98;;;0.98;;
50104;SDS011;47690;39.202;-77.198;2022-09-29T09:41:58;1.15;;;1.15;;
50104;SDS011;47690;39.202;-77.198;2022-09-29T09:46:45;1.20;;;1.15;;
50104;SDS011;47690;39.202;-77.198;2022-09-29T09:54:29;1.48;;;1.38;;
50104;SDS011;47690;39.202;-77.198;2022-09-29T10:08:05;0.73;;;0.73;;
50104;SDS011;47690;39.202;-77.198;2022-09-29T10:20:42;0.95;;;0.95;;
50104;SDS011;47690;39.202;-77.198;2022-09-29T10:25:11;1.00;;;1.00;;
50104;SDS011;47690;39.202;-77.198;2022-09-29T11:12:40;1.00;;;1.00;;
50104;SDS011;47690;39.202;-77.198;2022-09-29T11:34:52;0.90;;;0.90;;
50104;SDS011;47690;39.202;-77.198;2022-09-29T11:39:52;1.13;;;1.13;;
50104;SDS011;47690;39.202;-77.198;2022-09-29T11:43:53;1.20;;;1.10;;
50104;SDS011;47690;39.202;-77.198;2022-09-29T12:12:16;1.20;;;1.20;;
50104;SDS011;47690;39.202;-77.198;2022-09-29T12:15:40;1.20;;;1.15;;
50104;SDS011;47690;39.202;-77.198;2022-09-29T12:19:41;1.35;;;1.25;;
50104;SDS011;47690;39.202;-77.198;2022-09-29T12:23:14;1.50;;;1.40;;
50104;SDS011;47690;39.202;-77.198;2022-09-29T12:26:20;1.15;;;1.15;;
50104;SDS011;47690;39.202;-77.198;2022-09-29T12:29:43;1.40;;;1.35;;
50104;SDS011;47690;39.202;-77.198;2022-09-29T12:32:59;1.40;;;1.30;;
50104;SDS011;47690;39.202;-77.198;2022-09-29T12:40:05;1.43;;;1.27;;
50104;SDS011;47690;39.202;-77.198;2022-09-29T12:44:13;1.20;;;1.20;;
50104;SDS011;47690;39.202;-77.198;2022-09-29T12:54:45;1.23;;;1.20;;
50104;SDS011;47690;39.202;-77.198;2022-09-29T12:58:03;1.42;;;1.33;;
50104;SDS011;47690;39.202;-77.198;2022-09-29T13:01:28;1.23;;;1.20;;
50104;SDS011;47690;39.202;-77.198;2022-09-29T13:08:57;1.00;;;1.00;;
50104;SDS011;47690;39.202;-77.198;2022-09-29T13:30:11;1.55;;;1.45;;
50104;SDS011;47690;39.202;-77.198;2022-09-29T13:33:30;1.30;;;1.20;;
50104;SDS011;47690;39.202;-77.198;2022-09-29T13:36:38;1.52;;;1.40;;
50104;SDS011;47690;39.202;-77.198;2022-09-29T13:47:54;1.35;;;1.25;;
50104;SDS011;47690;39.202;-77.198;2022-09-29T14:05:55;1.40;;;1.30;;
50104;SDS011;47690;39.202;-77.198;2022-09-29T14:09:33;1.90;;;1.75;;
50104;SDS011;47690;39.202;-77.198;2022-09-29T14:17:00;1.20;;;1.10;;
50104;SDS011;47690;39.202;-77.198;2022-09-29T14:26:52;1.38;;;1.27;;
50104;SDS011;47690;39.202;-77.198;2022-09-29T14:30:41;1.80;;;1.58;;
50104;SDS011;47690;39.202;-77.198;2022-09-29T14:33:45;1.53;;;1.43;;
50104;SDS011;47690;39.202;-77.198;2022-09-29T14:36:52;1.60;;;1.48;;
50104;SDS011;47690;39.202;-77.198;2022-09-29T14:40:01;1.55;;;1.45;;
50104;SDS011;47690;39.202;-77.198;2022-09-29T14:47:16;2.40;;;1.38;;
50104;SDS011;47690;39.202;-77.198;2022-09-29T14:50:50;1.75;;;1.50;;
50104;SDS011;47690;39.202;-77.198;2022-09-29T14:54:27;1.70;;;1.60;;
50104;SDS011;47690;39.202;-77.198;2022-09-29T15:01:33;2.22;;;1.50;;
50104;SDS011;47690;39.202;-77.198;2022-09-29T15:08:21;1.38;;;1.25;;
50104;SDS011;47690;39.202;-77.198;2022-09-29T15:11:42;2.60;;;1.60;;
50104;SDS011;47690;39.202;-77.198;2022-09-29T15:22:29;1.63;;;1.52;;
50104;SDS011;47690;39.202;-77.198;2022-09-29T15:25:42;2.77;;;1.60;;
50104;SDS011;47690;39.202;-77.198;2022-09-29T15:28:53;3.33;;;1.75;;
50104;SDS011;47690;39.202;-77.198;2022-09-29T15:32:29;3.08;;;1.63;;
50104;SDS011;47690;39.202;-77.198;2022-09-29T15:35:41;3.15;;;1.55;;
50104;SDS011;47690;39.202;-77.198;2022-09-29T15:38:53;1.58;;;1.48;;
50104;SDS011;47690;39.202;-77.198;2022-09-29T15:45:33;1.48;;;1.38;;
50104;SDS011;47690;39.202;-77.198;2022-09-29T15:49:08;1.80;;;1.70;;
50104;SDS011;47690;39.202;-77.198;2022-09-29T15:52:44;1.60;;;1.50;;
50104;SDS011;47690;39.202;-77.198;2022-09-29T15:56:21;1.77;;;1.50;;
50104;SDS011;47690;39.202;-77.198;2022-09-29T15:59:27;1.10;;;1.10;;
50104;SDS011;47690;39.202;-77.198;2022-09-29T16:03:27;1.70;;;1.38;;
50104;SDS011;47690;39.202;-77.198;2022-09-29T16:06:42;1.58;;;1.48;;
50104;SDS011;47690;39.202;-77.198;2022-09-29T16:09:41;2.00;;;1.80;;
50104;SDS011;47690;39.202;-77.198;2022-09-29T16:12:53;1.48;;;1.38;;
50104;SDS011;47690;39.202;-77.198;2022-09-29T16:16:16;1.65;;;1.55;;
50104;SDS011;47690;39.202;-77.198;2022-09-29T16:24:15;1.50;;;1.40;;
50104;SDS011;47690;39.202;-77.198;2022-09-29T16:27:57;1.52;;;1.42;;
50104;SDS011;47690;39.202;-77.198;2022-09-29T16:31:18;1.52;;;1.42;;
50104;SDS011;47690;39.202;-77.198;2022-09-29T16:39:45;3.25;;;1.50;;
50104;SDS011;47690;39.202;-77.198;2022-09-29T16:44:32;2.85;;;1.88;;
50104;SDS011;47690;39.202;-77.198;2022-09-29T16:47:45;1.65;;;1.55;;
50104;SDS011;47690;39.202;-77.198;2022-09-29T16:50:58;1.50;;;1.40;;
50104;SDS011;47690;39.202;-77.198;2022-09-29T16:54:46;1.70;;;1.60;;
50104;SDS011;47690;39.202;-77.198;2022-09-29T17:01:40;1.70;;;1.60;;
50104;SDS011;47690;39.202;-77.198;2022-09-29T17:04:56;2.70;;;1.60;;
50104;SDS011;47690;39.202;-77.198;2022-09-29T17:08:42;1.80;;;1.70;;
50104;SDS011;47690;39.202;-77.198;2022-09-29T17:15:30;1.95;;;1.70;;
50104;SDS011;47690;39.202;-77.198;2022-09-29T17:18:50;2.10;;;1.67;;
50104;SDS011;47690;39.202;-77.198;2022-09-29T17:22:41;1.67;;;1.58;;
50104;SDS011;47690;39.202;-77.198;2022-09-29T17:25:54;1.83;;;1.63;;
50104;SDS011;47690;39.202;-77.198;2022-09-29T17:30:30;1.50;;;1.40;;
50104;SDS011;47690;39.202;-77.198;2022-09-29T17:34:07;1.73;;;1.63;;
50104;SDS011;47690;39.202;-77.198;2022-09-29T17:39:22;2.28;;;1.60;;
50104;SDS011;47690;39.202;-77.198;2022-09-29T17:43:21;1.30;;;1.20;;
50104;SDS011;47690;39.202;-77.198;2022-09-29T17:46:53;1.70;;;1.60;;
50104;SDS011;47690;39.202;-77.198;2022-09-29T17:50:41;2.72;;;1.75;;
50104;SDS011;47690;39.202;-77.198;2022-09-29T17:54:17;1.92;;;1.67;;
50104;SDS011;47690;39.202;-77.198;2022-09-29T17:58:50;1.50;;;1.33;;
50104;SDS011;47690;39.202;-77.198;2022-09-29T18:07:58;1.48;;;1.38;;
50104;SDS011;47690;39.202;-77.198;2022-09-29T18:11:14;1.67;;;1.58;;
50104;SDS011;47690;39.202;-77.198;2022-09-29T18:20:30;1.63;;;1.52;;
50104;SDS011;47690;39.202;-77.198;2022-09-29T18:25:07;1.70;;;1.52;;
50104;SDS011;47690;39.202;-77.198;2022-09-29T18:29:58;1.58;;;1.48;;
50104;SDS011;47690;39.202;-77.198;2022-09-29T18:34:29;1.95;;;1.50;;
50104;SDS011;47690;39.202;-77.198;2022-09-29T18:39:32;1.20;;;1.20;;
50104;SDS011;47690;39.202;-77.198;2022-09-29T18:54:32;1.25;;;1.15;;
50104;SDS011;47690;39.202;-77.198;2022-09-29T18:59:59;1.67;;;1.58;;
50104;SDS011;47690;39.202;-77.198;2022-09-29T19:04:47;1.60;;;1.50;;
50104;SDS011;47690;39.202;-77.198;2022-09-29T19:09:37;1.45;;;1.35;;
50104;SDS011;47690;39.202;-77.198;2022-09-29T19:15:04;1.65;;;1.55;;
50104;SDS011;47690;39.202;-77.198;2022-09-29T19:49:06;2.33;;;1.45;;
50104;SDS011;47690;39.202;-77.198;2022-09-29T19:54:37;1.08;;;1.08;;
50104;SDS011;47690;39.202;-77.198;2022-09-29T19:59:43;1.42;;;1.33;;
50104;SDS011;47690;39.202;-77.198;2022-09-29T20:03:48;1.67;;;1.58;;
50104;SDS011;47690;39.202;-77.198;2022-09-29T20:42:26;1.67;;;1.58;;
50104;SDS011;47690;39.202;-77.198;2022-09-29T20:47:17;2.17;;;1.60;;
50104;SDS011;47690;39.202;-77.198;2022-09-29T20:52:24;1.55;;;1.45;;
50104;SDS011;47690;39.202;-77.198;2022-09-29T20:57:05;1.40;;;1.30;;
50104;SDS011;47690;39.202;-77.198;2022-09-29T21:01:39;2.28;;;1.50;;
50104;SDS011;47690;39.202;-77.198;2022-09-29T21:06:55;1.70;;;1.60;;
50104;SDS011;47690;39.202;-77.198;2022-09-29T21:11:08;1.60;;;1.50;;
50104;SDS011;47690;39.202;-77.198;2022-09-29T21:16:03;2.00;;;1.42;;
50104;SDS011;47690;39.202;-77.198;2022-09-29T21:26:30;1.35;;;1.25;;
50104;SDS011;47690;39.202;-77.198;2022-09-29T21:41:50;1.23;;;1.13;;
50104;SDS011;47690;39.202;-77.198;2022-09-29T21:51:06;1.20;;;1.13;;
50104;SDS011;47690;39.202;-77.198;2022-09-29T21:55:52;1.17;;;1.10;;
50104;SDS011;47690;39.202;-77.198;2022-09-29T22:00:47;1.48;;;1.38;;
50104;SDS011;47690;39.202;-77.198;2022-09-29T22:05:29;1.40;;;1.30;;
50104;SDS011;47690;39.202;-77.198;2022-09-29T22:15:13;1.45;;;1.35;;
50104;SDS011;47690;39.202;-77.198;2022-09-29T22:20:34;1.23;;;1.20;;
50104;SDS011;47690;39.202;-77.198;2022-09-29T22:25:26;1.60;;;1.50;;
50104;SDS011;47690;39.202;-77.198;2022-09-29T22:30:05;1.35;;;1.08;;
50104;SDS011;47690;39.202;-77.198;2022-09-29T22:34:26;0.88;;;0.88;;
50104;SDS011;47690;39.202;-77.198;2022-09-29T22:42:48;1.48;;;1.38;;
50104;SDS011;47690;39.202;-77.198;2022-09-29T22:57:34;1.17;;;1.08;;
50104;SDS011;47690;39.202;-77.198;2022-09-29T23:02:25;1.85;;;1.30;;
50104;SDS011;47690;39.202;-77.198;2022-09-29T23:07:47;1.48;;;1.35;;
50104;SDS011;47690;39.202;-77.198;2022-09-29T23:13:22;1.40;;;1.30;;
50104;SDS011;47690;39.202;-77.198;2022-09-29T23:18:34;2.20;;;1.55;;
50104;SDS011;47690;39.202;-77.198;2022-09-29T23:23:50;1.98;;;1.50;;
50104;SDS011;47690;39.202;-77.198;2022-09-29T23:53:21;1.23;;;1.13;;
50104;SDS011;47690;39.202;-77.198;2022-09-29T23:58:38;1.50;;;1.40;;
